Time;durP1;ratioP1;P1;durP2;ratioP2;P2;SDS_P1;SDS_P2;PMS_P1;PMS_P2;Temp;Humidity;BMP_temperature;BMP_pressure;BME280_temperature;BME280_humidity;BME280_pressure;Samples;Min_cycle;Max_cycle;Signal;HPM_P1;HPM_P2
2024/04/27 00:00:55;;;;;;;1.10;1.00;;;;;;;-145.69;63.02;52260.22;5526830;26;20761;-75
2024/04/27 00:03:23;;;;;;;1.07;0.80;;;;;;;-145.69;63.77;52256.25;5527567;26;20332;-75
2024/04/27 00:05:54;;;;;;;1.73;0.90;;;;;;;-145.69;63.87;52240.41;5527029;26;20241;-77
2024/04/27 00:08:22;;;;;;;1.33;0.90;;;;;;;-145.69;63.99;52274.06;5527214;26;20775;-75
2024/04/27 00:10:50;;;;;;;1.10;1.00;;;;;;;-145.69;64.77;52282.00;5526469;26;20225;-76
2024/04/27 00:13:19;;;;;;;1.07;0.87;;;;;;;-145.69;65.11;52244.38;5527224;26;20233;-78
2024/04/27 00:15:48;;;;;;;1.13;0.90;;;;;;;-145.69;65.24;52254.28;5526820;26;20225;-75
2024/04/27 00:18:16;;;;;;;1.60;0.80;;;;;;;-145.69;65.71;52218.63;5526640;26;20225;-78
2024/04/27 00:20:44;;;;;;;1.37;1.10;;;;;;;-145.69;65.80;52258.22;5527058;26;20288;-75
2024/04/27 00:23:15;;;;;;;2.53;1.10;;;;;;;-145.69;65.75;52274.06;5527183;26;20217;-74
2024/04/27 00:25:44;;;;;;;1.60;1.07;;;;;;;-145.69;66.05;52272.09;5526553;26;20229;-77
2024/04/27 00:28:12;;;;;;;3.57;1.00;;;;;;;-145.69;65.77;52278.03;5526440;26;20226;-76
2024/04/27 00:30:40;;;;;;;2.20;0.90;;;;;;;-145.69;66.22;52250.31;5526694;26;20273;-76
2024/04/27 00:33:08;;;;;;;2.07;1.20;;;;;;;-145.69;66.13;52246.34;5526815;26;20549;-76
2024/04/27 00:35:36;;;;;;;2.70;1.00;;;;;;;-145.69;66.41;52244.38;5526440;26;20230;-77
2024/04/27 00:38:05;;;;;;;3.23;1.10;;;;;;;-145.69;66.41;52258.22;5527197;26;20268;-76
2024/04/27 00:40:35;;;;;;;0.90;0.90;;;;;;;-145.69;66.36;52260.22;5526839;26;20225;-76
2024/04/27 00:43:05;;;;;;;2.33;1.00;;;;;;;-145.69;66.36;52276.06;5526690;26;20225;-76
2024/04/27 00:45:33;;;;;;;3.13;1.40;;;;;;;-145.69;66.22;52260.22;5526219;26;20554;-77
2024/04/27 00:48:01;;;;;;;1.07;0.97;;;;;;;-145.69;65.70;52291.91;5526199;26;20229;-76
2024/04/27 00:50:30;;;;;;;1.73;1.00;;;;;;;-145.69;65.18;52278.03;5526656;26;20289;-77
2024/04/27 00:52:58;;;;;;;1.10;1.00;;;;;;;-145.69;64.96;52262.19;5526666;26;20708;-77
2024/04/27 00:55:25;;;;;;;1.10;1.00;;;;;;;-145.69;64.86;52252.28;5526350;26;20272;-77
2024/04/27 00:57:56;;;;;;;4.53;1.00;;;;;;;-145.69;64.83;52258.22;5526675;26;20225;-76
2024/04/27 01:00:24;;;;;;;1.80;1.00;;;;;;;-145.69;64.45;52254.28;5527156;26;20529;-76
2024/04/27 01:02:53;;;;;;;1.43;1.07;;;;;;;-145.69;64.46;52234.47;5526496;26;20225;-77
2024/04/27 01:05:21;;;;;;;1.27;1.17;;;;;;;-145.69;64.32;52242.38;5525531;26;20217;-76
2024/04/27 01:07:53;;;;;;;2.13;1.10;;;;;;;-145.69;64.29;52278.03;5526220;26;20273;-76
2024/04/27 01:10:21;;;;;;;2.33;1.23;;;;;;;-145.69;64.24;52278.03;5526017;26;20225;-77
2024/04/27 01:12:50;;;;;;;1.23;1.10;;;;;;;-145.69;64.40;52303.78;5525521;26;20727;-76
2024/04/27 01:15:25;;;;;;;4.20;1.03;;;;;;;-145.69;64.32;52238.44;5525485;26;20275;-77
2024/04/27 01:17:53;;;;;;;1.63;1.10;;;;;;;-145.69;64.22;52278.03;5526275;26;20225;-77
2024/04/27 01:20:21;;;;;;;1.60;1.13;;;;;;;-145.69;64.44;52266.16;5525041;26;20316;-78
2024/04/27 01:22:53;;;;;;;1.83;1.20;;;;;;;-145.69;64.21;52258.22;5525570;26;20225;-76
2024/04/27 01:25:22;;;;;;;1.43;1.20;;;;;;;-145.69;64.49;52272.09;5525905;26;20610;-76
2024/04/27 01:27:50;;;;;;;1.30;1.20;;;;;;;-145.69;64.66;52307.75;5526026;26;20851;-76
2024/04/27 01:30:18;;;;;;;1.20;1.10;;;;;;;-145.69;64.84;52262.19;5525846;26;20256;-77
2024/04/27 01:32:46;;;;;;;2.20;1.20;;;;;;;-145.69;64.89;52262.19;5525594;26;20343;-75
2024/04/27 01:35:14;;;;;;;1.60;1.00;;;;;;;-145.69;64.72;52293.88;5489294;26;20701;-76
2024/04/27 01:37:42;;;;;;;2.00;1.20;;;;;;;-145.69;64.64;52258.22;5491606;26;20236;-78
2024/04/27 01:40:13;;;;;;;1.27;1.10;;;;;;;-145.69;64.86;52258.22;5521908;26;20651;-77
2024/04/27 01:42:41;;;;;;;3.10;1.30;;;;;;;-145.69;64.60;52230.50;5525334;26;20775;-77
2024/04/27 01:45:10;;;;;;;1.40;1.00;;;;;;;-145.69;64.64;52283.97;5525415;26;20355;-77
2024/04/27 01:47:38;;;;;;;1.90;1.10;;;;;;;-145.69;64.37;52262.19;5525178;26;20226;-76
2024/04/27 01:50:07;;;;;;;2.57;1.30;;;;;;;-145.69;64.10;52234.47;5525442;26;20592;-77
2024/04/27 01:52:35;;;;;;;2.90;1.30;;;;;;;-145.69;64.17;52266.16;5525707;26;20221;-77
2024/04/27 01:55:03;;;;;;;2.00;1.00;;;;;;;-145.69;64.19;52254.28;5525641;26;20225;-76
2024/04/27 01:57:34;;;;;;;1.70;1.30;;;;;;;-145.69;64.14;52274.06;5525797;26;20289;-76
2024/04/27 02:00:02;;;;;;;1.13;1.03;;;;;;;-145.69;64.23;52260.22;5488692;26;20322;-76
2024/04/27 02:02:30;;;;;;;2.13;1.40;;;;;;;-145.69;64.16;52264.16;5489082;26;20530;-78
2024/04/27 02:04:59;;;;;;;3.10;1.20;;;;;;;-145.69;64.08;52254.28;5517749;26;20229;-77
2024/04/27 02:07:27;;;;;;;2.53;1.33;;;;;;;-145.69;63.92;52278.03;5525463;26;20222;-77
2024/04/27 02:09:55;;;;;;;1.67;1.20;;;;;;;-145.69;63.79;52234.47;5524689;26;20229;-77
2024/04/27 02:12:23;;;;;;;1.10;1.00;;;;;;;-145.69;63.57;52254.28;5525220;26;20297;-77
2024/04/27 02:14:54;;;;;;;3.43;1.13;;;;;;;-145.69;63.34;52278.03;5524504;26;20342;-76
2024/04/27 02:20:06;;;;;;;0.93;0.90;;;;;;;-145.69;62.94;52282.00;5527000;26;20267;-76
2024/04/27 02:22:35;;;;;;;2.33;1.07;;;;;;;-145.69;62.93;52285.97;5525488;26;20286;-78
2024/04/27 02:25:03;;;;;;;1.30;1.10;;;;;;;-145.69;63.26;52258.22;5524929;26;20233;-77
2024/04/27 02:27:31;;;;;;;1.50;1.20;;;;;;;-145.69;63.40;52264.16;5525185;26;20218;-77
2024/04/27 02:30:02;;;;;;;2.70;1.10;;;;;;;-145.69;63.43;52262.19;5524712;26;20690;-76
2024/04/27 02:32:30;;;;;;;1.10;1.00;;;;;;;-145.69;63.53;52270.13;5524741;26;20229;-77
2024/04/27 02:34:58;;;;;;;1.23;0.93;;;;;;;-145.69;63.51;52254.28;5524776;26;20652;-77
2024/04/27 02:37:23;;;;;;;1.10;1.00;;;;;;;-145.69;63.99;52287.94;5524855;26;20644;-76
2024/04/27 02:39:51;;;;;;;1.27;1.17;;;;;;;-145.69;64.02;52295.84;5524921;26;20225;-76
2024/04/27 02:42:20;;;;;;;1.43;1.33;;;;;;;-145.69;64.79;52285.97;5524977;26;20275;-77
2024/04/27 02:44:48;;;;;;;3.37;1.20;;;;;;;-145.69;64.26;52258.22;5525239;26;20222;-76
2024/04/27 02:47:19;;;;;;;3.20;1.20;;;;;;;-145.69;64.27;52262.19;5523384;26;20233;-76
2024/04/27 02:49:47;;;;;;;1.93;1.40;;;;;;;-145.69;64.32;52250.31;5524851;26;20712;-77
2024/04/27 02:52:15;;;;;;;6.50;1.13;;;;;;;-145.69;63.83;52254.28;5523908;26;20225;-77
2024/04/27 02:54:43;;;;;;;2.07;1.10;;;;;;;-145.69;63.95;52230.50;5515515;26;20811;-77
2024/04/27 02:57:11;;;;;;;1.47;1.07;;;;;;;-145.69;63.91;52246.34;5524829;26;20332;-77
2024/04/27 02:59:39;;;;;;;3.23;1.30;;;;;;;-145.69;64.14;52272.09;5524562;26;20298;-76
2024/04/27 03:02:07;;;;;;;1.10;1.00;;;;;;;-145.69;64.31;52258.22;5524103;26;20289;-77
2024/04/27 03:04:38;;;;;;;1.30;1.20;;;;;;;-145.69;64.38;52268.13;5524280;26;20791;-76
2024/04/27 03:07:06;;;;;;;1.33;1.03;;;;;;;-145.69;64.49;52242.38;5524846;26;20221;-77
2024/04/27 03:09:35;;;;;;;3.00;1.40;;;;;;;-145.69;64.57;52258.22;5524526;26;20225;-78
2024/04/27 03:12:03;;;;;;;1.60;1.10;;;;;;;-145.69;64.44;52244.38;5523222;25;20229;-77
2024/04/27 03:14:31;;;;;;;1.63;1.07;;;;;;;-145.69;64.15;52276.06;5523407;26;20277;-78
2024/04/27 03:16:59;;;;;;;3.73;1.30;;;;;;;-145.69;63.19;52220.59;5524771;26;20221;-76
2024/04/27 03:19:27;;;;;;;1.97;1.10;;;;;;;-145.69;63.09;52254.28;5524511;26;20252;-77
2024/04/27 03:21:58;;;;;;;1.70;1.10;;;;;;;-145.69;62.49;52254.28;5524328;26;20222;-77
2024/04/27 03:24:26;;;;;;;2.37;1.00;;;;;;;-145.69;62.04;52274.06;5523953;26;20751;-76
2024/04/27 03:26:54;;;;;;;2.50;1.33;;;;;;;-145.69;61.53;52258.22;5526289;26;20842;-78
2024/04/27 03:29:22;;;;;;;1.23;1.10;;;;;;;-145.69;61.37;52297.84;5527915;26;20312;-76
2024/04/27 03:31:50;;;;;;;2.53;1.17;;;;;;;-145.69;61.59;52272.09;5527173;26;20260;-77
2024/04/27 03:34:18;;;;;;;1.87;0.90;;;;;;;-145.69;61.55;52262.19;5526741;26;20716;-76
2024/04/27 03:36:46;;;;;;;1.20;0.90;;;;;;;-145.69;61.51;52252.28;5527455;26;20283;-77
2024/04/27 03:39:17;;;;;;;1.20;1.10;;;;;;;-145.69;61.46;52246.34;5527308;26;20249;-77
2024/04/27 03:41:45;;;;;;;1.40;1.20;;;;;;;-145.69;61.44;52206.75;5527615;26;20229;-77
2024/04/27 03:44:13;;;;;;;4.27;1.30;;;;;;;-145.69;61.67;52252.28;5527445;26;20328;-76
2024/04/27 03:46:39;;;;;;;2.40;1.03;;;;;;;-145.69;61.50;52214.66;5527706;26;20218;-76
2024/04/27 03:49:08;;;;;;;1.30;1.10;;;;;;;-145.69;61.13;52278.03;5527305;26;20225;-77
2024/04/27 03:51:37;;;;;;;2.53;1.20;;;;;;;-145.69;61.02;52232.50;5526725;26;20288;-76
2024/04/27 03:54:05;;;;;;;1.23;1.10;;;;;;;-145.69;60.77;52256.25;5527124;26;20238;-77
2024/04/27 03:56:36;;;;;;;1.37;0.97;;;;;;;-145.69;61.33;52242.38;5527449;26;20355;-76
2024/04/27 03:59:04;;;;;;;1.40;1.30;;;;;;;-145.69;61.25;52240.41;5527467;26;20275;-76
2024/04/27 04:01:32;;;;;;;1.30;0.90;;;;;;;-145.69;61.29;52258.22;5526971;26;20237;-75
2024/04/27 04:04:00;;;;;;;1.47;1.20;;;;;;;-145.69;61.90;52244.38;5527171;26;20233;-76
2024/04/27 04:06:29;;;;;;;2.93;1.47;;;;;;;-145.69;62.25;52250.31;5526960;26;20233;-77
2024/04/27 04:08:57;;;;;;;2.73;1.33;;;;;;;-145.69;61.82;52250.31;5526457;26;20378;-76
2024/04/27 04:11:25;;;;;;;1.90;1.50;;;;;;;-145.69;62.17;52254.28;5527496;26;20233;-75
2024/04/27 04:13:56;;;;;;;3.60;1.50;;;;;;;-145.69;62.09;52234.47;5527300;26;20225;-76
2024/04/27 04:16:25;;;;;;;2.17;1.37;;;;;;;-145.69;62.61;52276.06;5527154;26;20225;-76
2024/04/27 04:18:54;;;;;;;1.63;1.53;;;;;;;-145.69;62.56;52297.84;5527030;26;20255;-76
2024/04/27 04:21:25;;;;;;;1.50;1.13;;;;;;;-145.69;62.94;52238.44;5526259;26;20272;-77
2024/04/27 04:23:53;;;;;;;2.67;1.33;;;;;;;-145.69;62.98;52248.34;5527164;26;20360;-76
2024/04/27 04:26:21;;;;;;;1.73;1.30;;;;;;;-145.69;62.96;52270.13;5526307;26;20245;-77
2024/04/27 04:28:50;;;;;;;1.13;1.03;;;;;;;-145.69;63.44;52270.13;5526880;26;20633;-77
2024/04/27 04:31:21;;;;;;;4.17;2.53;;;;;;;-145.69;63.46;52254.28;5527027;26;20285;-76
2024/04/27 04:33:49;;;;;;;1.47;1.37;;;;;;;-145.69;64.04;52254.28;5526580;26;20225;-77
2024/04/27 04:36:17;;;;;;;3.07;1.87;;;;;;;-145.69;64.52;52295.84;5526619;26;20225;-77
2024/04/27 04:38:45;;;;;;;2.13;1.73;;;;;;;-145.69;64.20;52260.22;5526506;26;20222;-77
2024/04/27 04:41:16;;;;;;;3.80;2.10;;;;;;;-145.69;63.75;52258.22;5526742;26;20342;-76
2024/04/27 04:43:44;;;;;;;3.07;2.37;;;;;;;-145.69;63.74;52270.13;5526105;26;20766;-77
2024/04/27 04:46:12;;;;;;;7.30;1.80;;;;;;;-145.69;63.82;52280.00;5526670;26;20306;-76
2024/04/27 04:48:43;;;;;;;1.83;1.50;;;;;;;-145.69;63.59;52264.16;5526519;26;20735;-77
2024/04/27 04:51:13;;;;;;;3.93;2.00;;;;;;;-145.69;63.36;52272.09;5526406;26;20610;-77
2024/04/27 04:53:42;;;;;;;3.07;1.70;;;;;;;-145.69;63.25;52240.41;5525818;26;20225;-77
2024/04/27 04:56:12;;;;;;;3.60;1.90;;;;;;;-145.69;62.67;52238.44;5526506;26;20711;-77
2024/04/27 04:58:41;;;;;;;2.70;2.00;;;;;;;-145.69;62.29;52242.38;5526355;26;20221;-76
2024/04/27 05:01:09;;;;;;;3.77;1.73;;;;;;;-145.69;61.76;52252.28;5526167;26;20229;-77
2024/04/27 05:03:37;;;;;;;2.30;1.80;;;;;;;-145.69;61.61;52246.34;5526284;26;20260;-77
2024/04/27 05:06:10;;;;;;;3.33;2.13;;;;;;;-145.69;61.21;52254.28;5526212;26;20703;-77
2024/04/27 05:08:38;;;;;;;4.63;1.80;;;;;;;-145.69;61.18;52246.34;5526392;26;20217;-77
2024/04/27 05:11:06;;;;;;;2.63;2.07;;;;;;;-145.69;60.88;52230.50;5526363;26;20263;-77
2024/04/27 05:13:34;;;;;;;3.10;1.80;;;;;;;-145.69;60.97;52246.34;5526156;26;20281;-76
2024/04/27 05:16:02;;;;;;;5.10;2.33;;;;;;;-145.69;61.23;52254.28;5525981;26;20359;-76
2024/04/27 05:18:30;;;;;;;3.10;2.10;;;;;;;-145.69;61.54;52268.13;5525736;26;20297;-76
2024/04/27 05:20:59;;;;;;;3.17;2.20;;;;;;;-145.69;61.36;52289.91;5523935;25;20229;-77
2024/04/27 05:23:29;;;;;;;2.87;1.90;;;;;;;-145.69;61.36;52244.38;5526313;26;20232;-78
2024/04/27 05:25:58;;;;;;;2.63;1.80;;;;;;;-145.69;61.46;52266.16;5525879;26;20233;-76
2024/04/27 05:28:26;;;;;;;3.23;2.13;;;;;;;-145.69;61.55;52234.47;5526209;26;20720;-76
2024/04/27 05:30:54;;;;;;;3.80;2.20;;;;;;;-145.69;61.65;52250.31;5525796;26;20222;-78
2024/04/27 05:33:22;;;;;;;3.10;2.20;;;;;;;-145.69;61.37;52262.19;5526017;26;20226;-77
2024/04/27 05:35:50;;;;;;;3.70;2.27;;;;;;;-145.69;61.48;52283.97;5524637;26;20724;-77
2024/04/27 05:38:18;;;;;;;5.87;1.80;;;;;;;-145.69;61.58;52228.53;5525708;26;20301;-76
2024/04/27 05:40:49;;;;;;;5.20;1.73;;;;;;;-145.69;61.38;52274.06;5526113;26;20222;-77
2024/04/27 05:43:17;;;;;;;4.20;2.00;;;;;;;-145.69;61.33;52270.13;5526101;26;20561;-77
2024/04/27 05:45:45;;;;;;;7.43;1.70;;;;;;;-145.69;60.98;52258.22;5525165;26;20256;-77
2024/04/27 05:48:13;;;;;;;2.47;1.70;;;;;;;-145.69;60.86;52230.50;5525320;26;20226;-76
2024/04/27 05:50:41;;;;;;;2.90;1.60;;;;;;;-145.69;60.85;52242.38;5524832;26;20263;-77
2024/04/27 05:53:12;;;;;;;2.87;1.80;;;;;;;-145.69;60.58;52244.38;5525411;26;20230;-78
2024/04/27 05:55:40;;;;;;;2.40;1.60;;;;;;;-145.69;60.15;52250.31;5525092;26;20719;-77
2024/04/27 05:58:11;;;;;;;2.60;1.67;;;;;;;-145.69;59.87;52236.44;5525632;26;20252;-77
2024/04/27 06:00:39;;;;;;;3.87;2.07;;;;;;;-145.69;59.71;52222.59;5525804;26;20233;-77
2024/04/27 06:03:08;;;;;;;2.27;1.80;;;;;;;-145.69;59.74;52238.44;5526179;26;20221;-77
2024/04/27 06:05:36;;;;;;;1.87;1.50;;;;;;;-145.69;59.51;52262.19;5525690;26;20229;-77
2024/04/27 06:08:05;;;;;;;1.90;1.30;;;;;;;-145.69;59.53;52246.34;5526076;26;20263;-75
2024/04/27 06:10:33;;;;;;;1.37;1.23;;;;;;;-145.69;59.21;52230.50;5525739;26;20469;-76
2024/04/27 06:13:01;;;;;;;2.23;1.57;;;;;;;-145.69;58.35;52264.16;5525111;26;20217;-76
2024/04/27 06:15:32;;;;;;;2.60;1.53;;;;;;;-145.69;57.78;52210.72;5525273;26;20237;-77
2024/04/27 06:18:00;;;;;;;1.53;1.40;;;;;;;-145.69;56.55;52268.13;5525576;26;20289;-77
2024/04/27 06:20:28;;;;;;;3.67;1.40;;;;;;;-145.69;54.60;52218.63;5524807;26;20226;-76
2024/04/27 06:22:56;;;;;;;5.30;1.60;;;;;;;-145.69;53.40;52236.44;5525556;26;20230;-77
2024/04/27 06:25:24;;;;;;;3.87;1.50;;;;;;;-145.69;52.62;52240.41;5524791;26;20229;-77
2024/04/27 06:27:53;;;;;;;2.17;1.50;;;;;;;-145.69;50.73;52218.63;5525497;26;20313;-76
2024/04/27 06:30:18;;;;;;;1.33;1.10;;;;;;;-145.69;50.04;52232.50;5524859;26;20301;-77
2024/04/27 06:32:49;;;;;;;2.90;1.50;;;;;;;-145.69;48.36;52196.84;5525303;26;20225;-77
2024/04/27 06:35:17;;;;;;;1.80;1.40;;;;;;;-145.69;46.69;52204.75;5524772;26;20564;-76
2024/04/27 06:37:47;;;;;;;1.53;1.30;;;;;;;-145.69;46.20;52179.03;5524775;26;20226;-76
2024/04/27 06:40:15;;;;;;;1.37;0.80;;;;;;;-145.69;45.36;52194.88;5525084;26;20320;-76
2024/04/27 06:42:43;;;;;;;1.52;1.10;;;;;;;-145.69;45.28;52204.75;5524340;26;20353;-76
2024/04/27 06:45:11;;;;;;;1.30;1.20;;;;;;;-145.69;45.19;52182.97;5524050;26;20229;-76
2024/04/27 06:47:40;;;;;;;1.13;1.00;;;;;;;-145.69;44.80;52202.78;5524824;26;20359;-76
2024/04/27 06:50:10;;;;;;;1.90;1.00;;;;;;;-145.69;42.54;52188.91;5523632;26;20225;-76
2024/04/27 06:52:39;;;;;;;1.23;0.97;;;;;;;-145.69;42.66;52226.53;5525076;26;20226;-76
2024/04/27 06:55:07;;;;;;;1.20;0.97;;;;;;;-145.69;42.33;52175.06;5524501;26;20268;-76
2024/04/27 06:57:35;;;;;;;1.38;0.90;;;;;;;-145.69;41.76;52159.22;5524927;26;20221;-77
2024/04/27 07:00:03;;;;;;;0.80;0.80;;;;;;;-145.69;41.24;52159.22;5525605;26;20285;-77
2024/04/27 07:02:31;;;;;;;2.38;1.17;;;;;;;-145.69;41.54;52167.13;5527898;26;20559;-76
2024/04/27 07:04:59;;;;;;;1.83;1.02;;;;;;;-145.69;40.21;52171.09;5528837;26;20817;-76
2024/04/27 07:07:30;;;;;;;3.38;0.90;;;;;;;-145.69;40.32;52163.19;5527885;26;20218;-76
2024/04/27 07:09:58;;;;;;;5.38;1.00;;;;;;;-145.69;41.43;52169.13;5528704;26;20217;-77
2024/04/27 07:12:26;;;;;;;1.50;0.90;;;;;;;-145.69;41.77;52165.16;5528281;26;20217;-76
2024/04/27 07:14:54;;;;;;;0.77;0.77;;;;;;;-145.69;41.57;52135.47;5526375;26;20226;-76
2024/04/27 07:17:22;;;;;;;2.75;1.50;;;;;;;-145.69;40.41;52119.63;5527804;26;20221;-76
2024/04/27 07:19:51;;;;;;;2.25;1.38;;;;;;;-145.69;38.61;52133.47;5527291;26;20557;-76
2024/04/27 07:22:19;;;;;;;2.28;1.45;;;;;;;-145.69;38.50;52082.00;5528191;26;20222;-77
2024/04/27 07:24:49;;;;;;;1.15;0.85;;;;;;;-145.69;38.00;52107.72;5526989;26;20230;-77
2024/04/27 07:27:18;;;;;;;3.50;0.80;;;;;;;-145.69;37.32;52115.66;5528224;26;20591;-76
2024/04/27 07:29:47;;;;;;;1.45;0.88;;;;;;;-145.69;36.84;52115.66;5527846;26;20249;-76
2024/04/27 07:32:15;;;;;;;1.00;0.80;;;;;;;-145.69;37.65;52087.94;5527882;26;20238;-75
2024/04/27 07:34:43;;;;;;;0.88;0.70;;;;;;;-145.69;37.24;52109.72;5527604;26;20672;-78
2024/04/27 07:37:11;;;;;;;1.88;0.65;;;;;;;-145.69;37.15;52064.16;5528333;26;20285;-75
2024/04/27 07:39:39;;;;;;;0.90;0.73;;;;;;;-145.69;36.39;52119.63;5527717;26;20225;-76
2024/04/27 07:42:10;;;;;;;0.93;0.70;;;;;;;-145.69;36.60;52099.81;5527297;26;20629;-77
2024/04/27 07:44:39;;;;;;;1.17;0.68;;;;;;;-145.69;36.32;52131.50;5527158;26;20437;-78
2024/04/27 07:47:07;;;;;;;1.17;0.70;;;;;;;-145.69;36.16;52111.69;5528314;26;20252;-77
2024/04/27 07:49:35;;;;;;;1.50;0.70;;;;;;;-145.69;36.05;52101.78;5527767;26;20226;-77
2024/04/27 07:52:04;;;;;;;0.77;0.70;;;;;;;-145.69;35.47;52103.78;5528334;26;20293;-76
2024/04/27 07:54:32;;;;;;;7.05;1.02;;;;;;;-145.69;35.35;52099.81;5527651;26;20276;-76
2024/04/27 07:56:58;;;;;;;0.77;0.60;;;;;;;-145.69;35.90;52072.09;5527485;26;20272;-76
2024/04/27 07:59:29;;;;;;;0.93;0.70;;;;;;;-145.69;35.83;52074.06;5527677;26;20229;-77
2024/04/27 08:01:57;;;;;;;1.08;0.70;;;;;;;-145.69;35.72;52087.94;5527053;26;20762;-77
2024/04/27 08:04:25;;;;;;;6.00;0.82;;;;;;;-145.69;35.46;52082.00;5527317;26;20249;-76
2024/04/27 08:06:53;;;;;;;0.80;0.60;;;;;;;-145.69;35.83;52099.81;5527377;26;20233;-77
2024/04/27 08:09:21;;;;;;;0.50;0.50;;;;;;;-145.69;35.01;52056.25;5527340;26;20256;-77
2024/04/27 08:11:49;;;;;;;1.25;0.60;;;;;;;-145.69;34.83;52093.88;5526814;26;20289;-76
2024/04/27 08:14:18;;;;;;;1.45;0.52;;;;;;;-145.69;35.11;52080.00;5526714;26;20368;-76
2024/04/27 08:16:48;;;;;;;0.60;0.60;;;;;;;-145.69;36.28;52068.13;5527535;26;20790;-77
2024/04/27 08:19:17;;;;;;;0.60;0.50;;;;;;;-145.69;36.24;52085.94;5527441;26;20281;-77
2024/04/27 08:21:45;;;;;;;0.70;0.70;;;;;;;-145.69;36.21;52068.13;5526814;26;20233;-75
2024/04/27 08:24:13;;;;;;;1.65;0.68;;;;;;;-145.69;36.94;52095.84;5526532;26;20558;-77
2024/04/27 08:26:43;;;;;;;0.60;0.60;;;;;;;-145.69;35.42;52082.00;5527046;26;20234;-76
2024/04/27 08:29:11;;;;;;;0.73;0.60;;;;;;;-145.69;35.03;52091.88;5527034;26;20281;-76
2024/04/27 08:31:39;;;;;;;42.42;2.83;;;;;;;-145.69;35.55;52101.78;5527123;26;20221;-75
2024/04/27 08:34:10;;;;;;;1.75;0.70;;;;;;;-145.69;33.61;52076.03;5526915;26;20225;-75
2024/04/27 08:36:38;;;;;;;0.77;0.70;;;;;;;-145.69;34.90;52078.03;5526608;26;20297;-75
2024/04/27 08:39:08;;;;;;;0.68;0.68;;;;;;;-145.69;34.61;52085.94;5527686;26;20324;-75
2024/04/27 08:41:36;;;;;;;1.05;0.70;;;;;;;-145.69;36.42;52101.78;5527638;26;20740;-76
2024/04/27 08:44:05;;;;;;;0.70;0.57;;;;;;;-145.69;34.84;52101.78;5527053;26;20225;-75
2024/04/27 08:46:34;;;;;;;0.88;0.57;;;;;;;-145.69;35.08;52072.09;5527404;26;20256;-74
2024/04/27 08:49:02;;;;;;;0.60;0.50;;;;;;;-145.69;35.18;52123.56;5523250;25;20358;-76
2024/04/27 08:51:35;;;;;;;0.98;0.88;;;;;;;-145.69;35.91;52064.16;5525991;26;20245;-76
2024/04/27 08:54:04;;;;;;;0.65;0.60;;;;;;;-145.69;36.69;52111.69;5526319;26;20346;-75
2024/04/27 08:56:37;;;;;;;0.80;0.80;;;;;;;-145.69;35.01;52083.97;5526241;26;20667;-77
2024/04/27 08:59:07;;;;;;;0.82;0.60;;;;;;;-145.69;36.80;52135.47;5526837;26;20285;-76
2024/04/27 09:01:35;;;;;;;1.08;0.60;;;;;;;-145.69;35.30;52105.75;5489734;26;20721;-75
2024/04/27 09:04:03;;;;;;;0.80;0.80;;;;;;;-145.69;35.45;52064.16;5517355;26;20242;-77
2024/04/27 09:06:34;;;;;;;0.43;0.43;;;;;;;-145.69;35.54;52082.00;5526428;26;20352;-76
2024/04/27 09:09:02;;;;;;;3.15;0.63;;;;;;;-145.69;37.14;52099.81;5525705;25;20233;-75
2024/04/27 09:11:30;;;;;;;1.00;0.50;;;;;;;-145.69;38.21;52083.97;5526480;26;20776;-76
2024/04/27 09:13:58;;;;;;;0.60;0.60;;;;;;;-145.69;36.20;52078.03;5525081;26;20241;-76
2024/04/27 09:16:27;;;;;;;0.80;0.70;;;;;;;-145.69;36.19;52095.84;5526044;26;20233;-75
2024/04/27 09:18:56;;;;;;;0.65;0.65;;;;;;;-145.69;34.42;52107.72;5526157;26;20221;-77
2024/04/27 09:21:27;;;;;;;0.93;0.50;;;;;;;-145.69;35.78;52080.00;5526242;26;20241;-77
2024/04/27 09:23:58;;;;;;;0.47;0.40;;;;;;;-145.69;37.38;52099.81;5524581;26;20260;-76
2024/04/27 09:26:26;;;;;;;0.50;0.50;;;;;;;-145.69;35.12;52068.13;5526297;26;20289;-76
2024/04/27 09:28:55;;;;;;;0.77;0.70;;;;;;;-145.69;35.73;52091.88;5525994;26;20580;-75
2024/04/27 09:31:23;;;;;;;2.03;0.50;;;;;;;-145.69;35.47;52083.97;5525558;26;20221;-76
2024/04/27 09:33:51;;;;;;;0.40;0.40;;;;;;;-145.69;34.40;52087.94;5525880;26;20293;-77
2024/04/27 09:36:19;;;;;;;0.55;0.55;;;;;;;-145.69;34.75;52070.09;5525794;26;20661;-76
2024/04/27 09:38:51;;;;;;;0.50;0.50;;;;;;;-145.69;34.70;52082.00;5525200;26;20321;-76
2024/04/27 09:41:22;;;;;;;1.20;0.32;;;;;;;-145.69;34.57;52080.00;5525859;26;20229;-76
2024/04/27 09:44:08;;;;;;;0.98;0.40;;;;;;;-145.69;34.90;52074.06;5525555;26;20707;-77
2024/04/27 09:46:40;;;;;;;0.52;0.50;;;;;;;-145.69;34.60;52048.31;5489085;26;20712;-76
2024/04/27 09:49:14;;;;;;;0.40;0.40;;;;;;;-145.69;34.79;52054.25;5488836;26;20219;-77
2024/04/27 09:51:51;;;;;;;0.43;0.43;;;;;;;-145.69;33.77;52080.00;5516569;26;20260;-76
2024/04/27 09:54:20;;;;;;;0.60;0.52;;;;;;;-145.69;33.71;52111.69;5525814;26;20321;-75
2024/04/27 09:56:51;;;;;;;0.77;0.50;;;;;;;-145.69;33.69;52066.16;5525572;26;20280;-76
2024/04/27 09:59:20;;;;;;;0.40;0.40;;;;;;;-145.69;33.06;52074.06;5526139;26;20230;-75
2024/04/27 10:01:50;;;;;;;0.47;0.40;;;;;;;-145.69;33.03;52056.25;5525316;26;20260;-75
2024/04/27 10:04:19;;;;;;;0.50;0.50;;;;;;;-145.69;32.77;52113.66;5525728;26;20221;-76
2024/04/27 10:06:50;;;;;;;0.40;0.40;;;;;;;-145.69;33.95;52083.97;5524135;26;20817;-75
2024/04/27 10:09:18;;;;;;;0.30;0.30;;;;;;;-145.69;32.97;52082.00;5525255;26;20349;-75
2024/04/27 10:11:46;;;;;;;0.65;0.40;;;;;;;-145.69;31.32;52052.28;5524902;26;20354;-75
2024/04/27 10:14:20;;;;;;;1.63;0.50;;;;;;;-145.69;34.20;52085.94;5525328;26;20226;-75
2024/04/27 10:16:48;;;;;;;3.03;0.50;;;;;;;-145.69;32.15;52052.28;5525523;26;20221;-75
2024/04/27 10:19:14;;;;;;;0.68;0.40;;;;;;;-145.69;31.62;52080.00;5524969;26;20268;-76
2024/04/27 10:21:43;;;;;;;0.52;0.35;;;;;;;-145.69;31.99;52068.13;5524906;26;20241;-75
2024/04/27 10:24:11;;;;;;;0.60;0.57;;;;;;;-145.69;30.72;52087.94;5524800;26;20321;-76
2024/04/27 10:26:41;;;;;;;0.30;0.30;;;;;;;-145.69;29.85;52056.25;5525209;26;20284;-76
2024/04/27 10:29:09;;;;;;;0.52;0.40;;;;;;;-145.69;31.69;52034.47;5524788;26;20795;-77
2024/04/27 10:31:40;;;;;;;1.38;0.50;;;;;;;-145.69;32.15;52062.19;5525133;26;20754;-75
2024/04/27 10:34:11;;;;;;;0.35;0.35;;;;;;;-145.69;33.52;52074.06;5524826;26;20757;-76
2024/04/27 10:36:40;;;;;;;0.73;0.50;;;;;;;-145.69;32.57;52038.44;5528481;26;20256;-75
2024/04/27 10:39:15;;;;;;;0.98;0.50;;;;;;;-145.69;32.41;52038.44;5528610;26;20592;-75
2024/04/27 10:41:53;;;;;;;1.35;0.40;;;;;;;-145.69;30.93;52036.44;5528761;26;20799;-78
2024/04/27 10:44:23;;;;;;;0.35;0.35;;;;;;;-145.69;31.65;52040.41;5527658;26;20237;-76
2024/04/27 10:47:01;;;;;;;0.43;0.40;;;;;;;-145.69;33.00;52060.22;5528755;26;20340;-77
2024/04/27 10:49:32;;;;;;;0.40;0.40;;;;;;;-145.69;31.12;52036.44;5528375;26;20237;-76
2024/04/27 10:52:00;;;;;;;0.50;0.50;;;;;;;-145.69;31.42;52044.38;5528286;26;20324;-76
2024/04/27 10:54:29;;;;;;;0.50;0.50;;;;;;;-145.69;31.24;52040.41;5528363;26;20233;-76
2024/04/27 10:56:59;;;;;;;1.08;0.50;;;;;;;-145.69;32.22;52070.09;5528248;26;20720;-76
2024/04/27 10:59:29;;;;;;;0.40;0.40;;;;;;;-145.69;32.88;52030.50;5528086;26;20293;-76
2024/04/27 11:02:06;;;;;;;1.40;0.45;;;;;;;-145.69;30.80;52080.00;5528488;26;20260;-77
2024/04/27 11:04:37;;;;;;;1.38;0.40;;;;;;;-145.69;31.99;52060.22;5526514;25;20727;-76
2024/04/27 11:07:12;;;;;;;1.25;0.65;;;;;;;-145.69;31.34;52044.38;5525537;26;20792;-75
2024/04/27 11:09:41;;;;;;;0.47;0.47;;;;;;;-145.69;30.52;52072.09;5527484;26;20271;-76
2024/04/27 11:12:13;;;;;;;0.82;0.57;;;;;;;-145.69;32.02;52028.53;5528104;26;20273;-76
2024/04/27 11:14:43;;;;;;;0.50;0.50;;;;;;;-145.69;31.83;52072.09;5527823;26;20316;-76
2024/04/27 11:17:14;;;;;;;0.63;0.50;;;;;;;-145.69;31.90;52012.69;5527453;26;20245;-75
2024/04/27 11:19:52;;;;;;;0.35;0.30;;;;;;;-145.69;30.05;52020.59;5527033;26;20336;-77
2024/04/27 11:22:20;;;;;;;0.50;0.50;;;;;;;-145.69;31.82;52028.53;5526758;26;20241;-77
2024/04/27 11:24:50;;;;;;;1.13;0.50;;;;;;;-145.69;32.51;52028.53;5527917;26;20279;-76
2024/04/27 11:27:23;;;;;;;0.38;0.38;;;;;;;-145.69;30.78;52020.59;5528079;26;20685;-75